Time;durP1;ratioP1;P1;durP2;ratioP2;P2;SDS_P1;SDS_P2;PMS_P1;PMS_P2;Temp;Humidity;BMP_temperature;BMP_pressure;BME280_temperature;BME280_humidity;BME280_pressure;Samples;Min_cycle;Max_cycle;Signal;HPM_P1;HPM_P2
2023/05/22 00:01:18;;;;;;;1999.90;999.90;;;13.60;79.10;;;;;;5035680;28;20038;-86
2023/05/22 00:03:45;;;;;;;1999.90;999.90;;;13.50;79.40;;;;;;5028112;28;20037;-86
2023/05/22 00:06:10;;;;;;;1999.90;999.90;;;13.50;79.80;;;;;;5018534;28;20082;-87
2023/05/22 00:08:36;;;;;;;1999.90;999.90;;;13.50;79.80;;;;;;5014562;28;20033;-87
2023/05/22 00:11:03;;;;;;;1999.90;999.90;;;13.40;81.00;;;;;;5029736;28;20034;-86
2023/05/22 00:13:28;;;;;;;1999.90;999.90;;;13.50;80.20;;;;;;5026225;28;20111;-87
2023/05/22 00:15:56;;;;;;;1999.90;999.90;;;13.40;80.60;;;;;;5033336;28;20072;-86
2023/05/22 00:18:25;;;;;;;1999.90;999.90;;;13.50;81.40;;;;;;5017272;28;20029;-87
2023/05/22 00:20:52;;;;;;;1999.90;999.90;;;13.40;81.30;;;;;;5015725;28;20029;-87
2023/05/22 00:23:18;;;;;;;1999.90;999.90;;;13.40;81.10;;;;;;5029571;28;20495;-87
2023/05/22 00:25:43;;;;;;;1999.90;999.90;;;13.30;81.60;;;;;;5028391;28;20033;-86
2023/05/22 00:28:10;;;;;;;1999.90;999.90;;;13.30;81.30;;;;;;5026701;28;20041;-86
2023/05/22 00:30:36;;;;;;;1999.90;999.90;;;13.20;82.10;;;;;;5029560;28;20116;-87
2023/05/22 00:33:02;;;;;;;1999.90;999.90;;;13.20;81.70;;;;;;5027336;28;20128;-86
2023/05/22 00:35:28;;;;;;;1999.90;999.90;;;13.10;81.80;;;;;;5033111;28;20213;-88
2023/05/22 00:37:54;;;;;;;1999.90;999.90;;;13.00;82.00;;;;;;5028293;28;20033;-87
2023/05/22 00:40:20;;;;;;;1999.90;999.90;;;12.90;82.50;;;;;;5030432;28;20034;-86
2023/05/22 00:42:46;;;;;;;1999.90;999.90;;;12.80;82.90;;;;;;5034995;28;20033;-87
2023/05/22 00:45:13;;;;;;;1999.90;999.90;;;12.70;83.10;;;;;;5029951;28;20036;-87
2023/05/22 00:47:39;;;;;;;1999.90;999.90;;;12.70;83.80;;;;;;5032339;28;20045;-87
2023/05/22 00:50:06;;;;;;;1999.90;999.90;;;12.70;84.20;;;;;;5031610;28;20036;-87
2023/05/22 00:52:34;;;;;;;1999.90;999.90;;;12.60;84.30;;;;;;5025008;28;20513;-87
2023/05/22 00:55:00;;;;;;;1999.90;999.90;;;12.50;84.30;;;;;;5031843;28;20391;-88
2023/05/22 00:57:27;;;;;;;1999.90;999.90;;;12.50;84.30;;;;;;5034695;28;20065;-85
2023/05/22 00:59:52;;;;;;;1999.90;999.90;;;12.50;84.30;;;;;;5014473;28;20033;-88
2023/05/22 01:02:19;;;;;;;1999.90;999.90;;;12.50;84.50;;;;;;5009903;28;20102;-87
2023/05/22 01:04:50;;;;;;;1999.90;999.90;;;12.50;84.90;;;;;;5015487;28;20040;-88
2023/05/22 01:07:20;;;;;;;1999.90;999.90;;;12.50;84.70;;;;;;5027378;28;20445;-87
2023/05/22 01:09:46;;;;;;;1999.90;999.90;;;12.40;84.80;;;;;;5032217;28;20029;-87
2023/05/22 01:12:33;;;;;;;1999.90;999.90;;;12.40;84.80;;;;;;5017580;28;20065;-88
2023/05/22 01:15:23;;;;;;;1999.90;999.90;;;12.40;85.30;;;;;;5030823;28;20038;-86
2023/05/22 01:18:23;;;;;;;1999.90;999.90;;;12.40;85.50;;;;;;5024948;28;20407;-86
2023/05/22 01:21:03;;;;;;;1999.90;999.90;;;12.50;86.20;;;;;;5023475;28;20120;-89
2023/05/22 01:24:01;;;;;;;1999.90;999.90;;;12.50;86.30;;;;;;5030532;28;20030;-87
2023/05/22 01:26:36;;;;;;;1999.90;999.90;;;12.50;86.30;;;;;;5031730;28;20030;-86
2023/05/22 01:29:22;;;;;;;1999.90;999.90;;;12.60;86.70;;;;;;5027570;28;20119;-86
2023/05/22 01:31:49;;;;;;;1999.90;999.90;;;12.70;86.60;;;;;;5032632;28;20033;-88
2023/05/22 01:34:17;;;;;;;1999.90;999.90;;;12.80;86.10;;;;;;5029126;28;20037;-87
2023/05/22 01:36:45;;;;;;;1999.90;999.90;;;12.70;85.70;;;;;;5026544;28;20392;-86
2023/05/22 01:39:11;;;;;;;1999.90;999.90;;;12.80;85.80;;;;;;5048853;22;20525;-78
2023/05/22 01:41:39;;;;;;;1999.90;999.90;;;12.80;85.50;;;;;;5040790;28;20029;-76
2023/05/22 01:44:05;;;;;;;688.75;640.92;;;12.90;85.50;;;;;;5041643;28;20059;-79
2023/05/22 01:46:31;;;;;;;699.10;651.28;;;12.90;85.50;;;;;;5039999;28;20052;-77
2023/05/22 01:48:57;;;;;;;725.42;677.05;;;13.00;85.50;;;;;;5039672;28;20039;-78
2023/05/22 01:51:42;;;;;;;742.28;690.47;;;12.90;85.40;;;;;;5041066;28;20029;-81
2023/05/22 01:54:17;;;;;;;732.50;683.67;;;13.00;85.30;;;;;;5035040;28;20059;-77
2023/05/22 01:56:48;;;;;;;734.55;686.45;;;12.90;85.40;;;;;;5036431;28;20025;-79
2023/05/22 01:59:30;;;;;;;759.85;709.83;;;12.90;85.80;;;;;;5035940;28;20029;-82
2023/05/22 02:02:02;;;;;;;728.20;681.65;;;13.00;86.10;;;;;;5043192;28;20387;-79
2023/05/22 02:04:30;;;;;;;753.97;705.15;;;13.00;86.20;;;;;;5038216;28;20025;-77
2023/05/22 02:06:59;;;;;;;754.00;704.85;;;13.00;86.30;;;;;;5045440;28;20029;-79
2023/05/22 02:09:29;;;;;;;738.95;690.50;;;13.00;85.60;;;;;;5034000;28;20045;-79
2023/05/22 02:11:56;;;;;;;771.10;722.47;;;13.00;85.70;;;;;;5038820;28;20083;-79
2023/05/22 02:14:22;;;;;;;749.15;700.20;;;12.90;86.30;;;;;;5040842;28;20044;-78
2023/05/22 02:16:49;;;;;;;750.95;705.13;;;12.80;86.60;;;;;;5038882;28;20171;-79
2023/05/22 02:19:14;;;;;;;789.75;741.13;;;12.80;86.50;;;;;;5036036;28;20041;-79
2023/05/22 02:21:40;;;;;;;782.33;732.60;;;12.80;86.60;;;;;;5033398;28;20037;-79
2023/05/22 02:24:06;;;;;;;787.30;737.05;;;12.90;86.50;;;;;;5042442;28;20033;-77
2023/05/22 02:26:31;;;;;;;787.97;738.35;;;12.90;86.40;;;;;;5042886;28;20108;-78
2023/05/22 02:28:57;;;;;;;784.65;734.72;;;12.80;86.80;;;;;;5041017;28;20065;-78
2023/05/22 02:31:23;;;;;;;778.22;729.75;;;12.70;87.00;;;;;;5040425;28;20535;-78
2023/05/22 02:33:49;;;;;;;779.53;730.45;;;12.70;86.90;;;;;;5042812;28;20444;-78
2023/05/22 02:36:15;;;;;;;782.70;733.78;;;12.70;86.80;;;;;;5038176;28;20043;-80
2023/05/22 02:38:40;;;;;;;789.58;740.63;;;12.70;86.80;;;;;;5035169;28;20396;-78
2023/05/22 02:41:06;;;;;;;801.83;753.22;;;12.60;86.70;;;;;;5041134;28;20033;-77
2023/05/22 02:43:32;;;;;;;782.13;734.35;;;12.50;87.40;;;;;;5037755;28;20025;-79
2023/05/22 02:45:58;;;;;;;805.17;755.05;;;12.60;87.40;;;;;;5043723;28;20087;-76
2023/05/22 02:48:23;;;;;;;820.05;766.88;;;12.40;87.80;;;;;;5039685;28;20042;-78
2023/05/22 02:50:49;;;;;;;828.45;775.88;;;12.30;88.20;;;;;;5043048;28;20033;-76
2023/05/22 02:53:16;;;;;;;808.60;757.58;;;12.30;88.40;;;;;;5036301;28;20451;-76
2023/05/22 02:55:42;;;;;;;820.15;767.42;;;12.30;88.30;;;;;;5042167;28;20055;-78
2023/05/22 02:58:10;;;;;;;820.22;768.63;;;12.30;88.60;;;;;;5043040;28;20053;-78
2023/05/22 03:00:39;;;;;;;834.13;780.40;;;12.30;88.50;;;;;;5040840;28;20380;-78
2023/05/22 03:03:05;;;;;;;785.40;735.83;;;12.30;88.20;;;;;;5040574;28;20029;-79
2023/05/22 03:05:31;;;;;;;794.40;743.33;;;12.10;88.70;;;;;;5039015;28;20067;-76
2023/05/22 03:07:57;;;;;;;799.72;749.17;;;12.10;89.40;;;;;;5041863;28;20049;-79
2023/05/22 03:10:23;;;;;;;750.63;705.53;;;12.10;89.40;;;;;;5039161;28;20039;-79
2023/05/22 03:12:52;;;;;;;773.55;726.00;;;12.00;89.60;;;;;;5042689;28;20035;-77
2023/05/22 03:15:18;;;;;;;740.72;696.00;;;12.00;89.80;;;;;;5037903;28;20041;-78
2023/05/22 03:17:43;;;;;;;716.97;675.65;;;11.90;90.00;;;;;;5040618;28;20542;-79
2023/05/22 03:20:10;;;;;;;699.75;660.67;;;11.90;90.20;;;;;;5034070;28;20069;-76
2023/05/22 03:22:35;;;;;;;717.63;674.95;;;11.90;90.10;;;;;;5042185;28;20110;-77
2023/05/22 03:25:01;;;;;;;670.70;634.05;;;11.90;90.00;;;;;;5044988;28;20041;-77
2023/05/22 03:27:27;;;;;;;706.17;666.67;;;11.80;90.10;;;;;;5036165;28;20033;-76
2023/05/22 03:29:52;;;;;;;717.25;676.75;;;11.70;90.20;;;;;;5038359;28;20029;-76
2023/05/22 03:32:18;;;;;;;689.22;652.00;;;11.60;90.30;;;;;;5036793;28;20059;-78
2023/05/22 03:34:44;;;;;;;696.17;658.47;;;11.60;90.20;;;;;;5041387;28;20060;-80
2023/05/22 03:37:09;;;;;;;693.10;653.90;;;11.50;90.30;;;;;;5040462;28;20394;-79
2023/05/22 03:39:38;;;;;;;663.83;628.63;;;11.50;90.80;;;;;;5026860;28;20049;-78
2023/05/22 03:42:04;;;;;;;675.10;638.13;;;11.50;90.40;;;;;;5041017;28;20112;-79
2023/05/22 03:44:29;;;;;;;698.70;659.83;;;11.50;90.50;;;;;;5039342;28;20108;-78
2023/05/22 03:46:55;;;;;;;693.85;655.22;;;11.40;90.60;;;;;;5038297;28;20467;-79
2023/05/22 03:49:21;;;;;;;703.33;662.83;;;11.50;90.80;;;;;;5036615;28;20559;-77
2023/05/22 03:51:46;;;;;;;700.60;661.65;;;11.50;90.90;;;;;;5012496;28;20446;-79
2023/05/22 03:54:12;;;;;;;688.75;651.60;;;11.60;91.00;;;;;;5036152;28;20483;-77
2023/05/22 03:56:38;;;;;;;671.10;634.50;;;11.70;90.80;;;;;;5034272;28;20084;-76
2023/05/22 03:59:03;;;;;;;684.60;648.63;;;11.80;90.70;;;;;;5040290;28;20047;-77
2023/05/22 04:01:29;;;;;;;628.22;594.17;;;12.00;90.70;;;;;;5036709;28;20448;-76
2023/05/22 04:03:55;;;;;;;644.45;610.30;;;12.10;90.50;;;;;;5038971;28;20045;-76
2023/05/22 04:06:21;;;;;;;676.65;640.55;;;12.20;90.20;;;;;;5038216;28;20029;-78
2023/05/22 04:08:49;;;;;;;613.38;581.70;;;12.40;89.90;;;;;;5035701;28;20106;-76
2023/05/22 04:11:15;;;;;;;635.08;601.75;;;12.50;89.00;;;;;;5031628;28;20046;-78
2023/05/22 04:13:42;;;;;;;636.20;602.00;;;12.60;88.90;;;;;;5029965;28;20033;-76
2023/05/22 04:16:07;;;;;;;647.83;614.50;;;12.80;88.40;;;;;;5029923;28;20041;-77
2023/05/22 04:18:33;;;;;;;598.15;567.70;;;12.90;88.10;;;;;;5035528;28;20033;-79
2023/05/22 04:20:59;;;;;;;662.65;627.50;;;13.10;87.90;;;;;;5038295;28;20030;-79
2023/05/22 04:23:24;;;;;;;620.97;589.47;;;13.20;87.90;;;;;;5040404;28;20033;-75
2023/05/22 04:25:50;;;;;;;616.28;584.60;;;13.30;87.70;;;;;;5039642;28;20034;-72
2023/05/22 04:28:16;;;;;;;567.75;538.88;;;13.50;87.60;;;;;;5046004;28;20116;-72
2023/05/22 04:30:42;;;;;;;586.88;557.05;;;13.60;87.30;;;;;;5043064;28;20470;-71
2023/05/22 04:33:09;;;;;;;574.13;545.15;;;13.70;87.10;;;;;;5030885;28;20021;-73
2023/05/22 04:35:35;;;;;;;617.63;586.63;;;13.80;86.50;;;;;;5042177;28;20037;-73
2023/05/22 04:38:05;;;;;;;539.53;512.67;;;13.90;86.10;;;;;;5032837;28;20552;-77
2023/05/22 04:40:32;;;;;;;531.63;505.70;;;14.00;86.20;;;;;;5039852;28;20524;-74
2023/05/22 04:42:59;;;;;;;558.65;531.45;;;14.00;86.70;;;;;;5037012;28;20051;-83
2023/05/22 04:45:29;;;;;;;618.25;586.55;;;14.20;86.40;;;;;;5040019;28;20048;-82
2023/05/22 04:47:55;;;;;;;587.55;557.78;;;14.20;86.70;;;;;;5043065;28;20036;-80
2023/05/22 04:50:22;;;;;;;633.72;600.50;;;14.50;86.30;;;;;;5041809;28;20037;-81
2023/05/22 04:52:48;;;;;;;636.40;602.63;;;14.60;85.60;;;;;;5044331;28;20557;-83
2023/05/22 04:55:14;;;;;;;622.88;590.70;;;14.70;84.90;;;;;;5043143;28;20032;-87
2023/05/22 04:57:43;;;;;;;628.40;595.33;;;14.60;84.30;;;;;;5044532;28;20022;-84
2023/05/22 05:00:09;;;;;;;641.40;606.30;;;14.50;84.90;;;;;;5028164;28;20116;-83
2023/05/22 05:02:36;;;;;;;663.53;627.08;;;14.70;85.10;;;;;;5038980;28;20026;-82
2023/05/22 05:05:01;;;;;;;681.00;644.13;;;14.70;84.80;;;;;;5023079;28;20616;-82
2023/05/22 05:07:28;;;;;;;627.60;594.78;;;15.10;85.40;;;;;;5038116;28;20033;-82
2023/05/22 05:09:53;;;;;;;646.00;606.20;;;15.00;83.70;;;;;;5039245;28;20033;-84
2023/05/22 05:12:19;;;;;;;680.95;643.35;;;15.10;83.70;;;;;;5035717;28;20056;-84
2023/05/22 05:14:46;;;;;;;628.58;595.28;;;15.10;84.20;;;;;;5037996;28;20040;-84
2023/05/22 05:17:12;;;;;;;685.88;647.75;;;15.20;84.30;;;;;;5035762;28;20031;-86
2023/05/22 05:19:38;;;;;;;647.05;613.33;;;15.20;84.20;;;;;;5033063;28;20468;-85
2023/05/22 05:22:04;;;;;;;602.70;571.40;;;15.30;83.70;;;;;;5037710;28;20022;-83
2023/05/22 05:24:30;;;;;;;669.90;633.67;;;15.40;82.70;;;;;;5038674;28;20032;-84
2023/05/22 05:26:56;;;;;;;678.47;641.95;;;15.50;82.70;;;;;;5032840;28;20033;-84
2023/05/22 05:29:21;;;;;;;669.13;632.38;;;15.60;82.50;;;;;;5040561;28;20128;-87
2023/05/22 05:31:47;;;;;;;670.03;633.65;;;15.80;82.00;;;;;;5018027;28;20044;-84
2023/05/22 05:34:13;;;;;;;681.22;642.03;;;16.00;81.30;;;;;;5046674;28;20390;-84
2023/05/22 05:36:40;;;;;;;672.15;635.33;;;16.20;80.40;;;;;;5040002;28;20510;-89
2023/05/22 05:39:06;;;;;;;714.35;674.05;;;16.00;79.30;;;;;;5037975;28;20049;-87
2023/05/22 05:41:32;;;;;;;751.88;706.20;;;16.10;79.20;;;;;;5039996;28;20041;-88
2023/05/22 05:44:00;;;;;;;733.50;689.75;;;16.10;78.80;;;;;;5034312;28;20045;-89
2023/05/22 05:46:25;;;;;;;743.55;698.45;;;16.10;79.30;;;;;;5039070;28;20033;-90
2023/05/22 05:48:51;;;;;;;809.03;757.50;;;16.10;78.60;;;;;;5038894;28;20037;-87
2023/05/22 05:51:17;;;;;;;823.13;771.78;;;16.00;78.80;;;;;;5019040;28;20096;-89
2023/05/22 05:53:43;;;;;;;815.15;763.72;;;16.10;78.80;;;;;;5033353;28;20402;-88
2023/05/22 05:56:10;;;;;;;815.30;763.15;;;16.10;79.30;;;;;;5037853;28;20539;-88
2023/05/22 05:58:36;;;;;;;833.92;778.97;;;16.20;78.90;;;;;;5008952;28;20418;-85
2023/05/22 06:01:02;;;;;;;841.10;785.65;;;16.10;78.50;;;;;;5035494;28;20040;-77
2023/05/22 06:03:29;;;;;;;815.28;762.25;;;16.00;79.30;;;;;;5042110;28;20038;-87
2023/05/22 06:05:56;;;;;;;853.67;796.50;;;16.10;79.20;;;;;;5033318;28;20026;-83
2023/05/22 06:08:22;;;;;;;844.13;787.58;;;16.10;78.40;;;;;;5039632;28;20037;-84
2023/05/22 06:10:47;;;;;;;855.83;798.13;;;16.00;77.80;;;;;;5039611;28;20032;-86
2023/05/22 06:13:13;;;;;;;855.05;796.63;;;16.20;77.80;;;;;;5022696;28;20051;-84
2023/05/22 06:15:40;;;;;;;887.90;827.92;;;16.10;79.30;;;;;;5022829;28;20152;-86
2023/05/22 06:18:05;;;;;;;858.28;801.05;;;16.10;78.70;;;;;;5040879;28;20128;-86
2023/05/22 06:20:31;;;;;;;873.67;813.78;;;16.00;77.90;;;;;;5040269;28;20679;-85
2023/05/22 06:22:57;;;;;;;860.38;802.88;;;16.10;78.40;;;;;;5036857;28;20041;-84
2023/05/22 06:25:24;;;;;;;878.75;819.17;;;16.00;78.00;;;;;;5038002;28;20035;-82
2023/05/22 06:27:50;;;;;;;882.55;822.25;;;16.10;77.90;;;;;;5037820;28;20037;-84
2023/05/22 06:30:16;;;;;;;872.58;813.80;;;16.10;78.30;;;;;;5036204;28;20502;-83
2023/05/22 06:32:42;;;;;;;916.67;854.17;;;15.90;78.40;;;;;;5024221;28;20068;-85
2023/05/22 06:35:09;;;;;;;881.90;821.85;;;16.00;78.10;;;;;;5043029;28;20039;-85
2023/05/22 06:37:36;;;;;;;919.92;856.40;;;16.20;78.10;;;;;;5036704;28;20033;-83
2023/05/22 06:40:02;;;;;;;873.03;813.10;;;16.20;77.40;;;;;;5038720;28;20415;-85
2023/05/22 06:42:28;;;;;;;856.03;795.90;;;16.20;76.90;;;;;;5037005;28;20677;-83
2023/05/22 06:44:54;;;;;;;837.97;779.53;;;16.10;76.50;;;;;;5037705;28;20041;-82
2023/05/22 06:47:19;;;;;;;831.80;773.83;;;16.20;76.60;;;;;;5032910;28;20041;-74
2023/05/22 06:49:45;;;;;;;876.38;814.83;;;16.30;77.00;;;;;;5036952;28;20088;-82
2023/05/22 06:52:11;;;;;;;885.47;823.20;;;16.30;76.70;;;;;;5040014;28;20043;-79
2023/05/22 06:54:41;;;;;;;902.30;840.00;;;16.60;77.60;;;;;;5034697;28;20049;-82
2023/05/22 06:57:07;;;;;;;885.25;824.20;;;16.60;76.70;;;;;;5035835;28;20033;-81
2023/05/22 06:59:33;;;;;;;840.22;782.20;;;16.60;75.30;;;;;;5036666;28;20038;-84
2023/05/22 07:01:59;;;;;;;822.72;765.45;;;16.60;75.80;;;;;;5037121;28;20055;-81
2023/05/22 07:04:25;;;;;;;863.70;802.00;;;16.80;76.30;;;;;;5038465;28;20041;-79
2023/05/22 07:06:51;;;;;;;836.05;775.60;;;17.00;75.90;;;;;;5034476;28;20029;-80
2023/05/22 07:09:18;;;;;;;809.08;749.85;;;17.10;74.40;;;;;;5041882;28;20036;-82
2023/05/22 07:11:45;;;;;;;775.97;721.40;;;17.00;75.00;;;;;;5040641;28;20028;-79
2023/05/22 07:14:11;;;;;;;757.80;700.70;;;17.20;76.10;;;;;;5037665;28;20040;-81
2023/05/22 07:16:38;;;;;;;749.55;690.13;;;17.20;73.30;;;;;;5049208;28;20029;-80
2023/05/22 07:19:03;;;;;;;774.78;715.45;;;17.40;74.40;;;;;;5027074;28;20037;-80
2023/05/22 07:21:31;;;;;;;667.05;611.58;;;17.70;73.20;;;;;;5036769;28;20476;-80
2023/05/22 07:23:57;;;;;;;1999.90;999.90;;;18.70;72.70;;;;;;5036837;28;20080;-79
2023/05/22 07:26:24;;;;;;;1999.90;999.90;;;18.90;68.80;;;;;;5036561;28;20029;-79
2023/05/22 07:28:50;;;;;;;1999.90;999.90;;;19.00;67.90;;;;;;5043018;28;20072;-77
2023/05/22 07:31:16;;;;;;;1999.90;999.90;;;19.20;70.00;;;;;;5032450;28;20026;-78
2023/05/22 07:33:41;;;;;;;1999.90;999.90;;;19.40;67.70;;;;;;5035845;28;20083;-76
2023/05/22 07:36:07;;;;;;;1999.90;999.90;;;19.40;68.10;;;;;;5032036;28;20058;-77
2023/05/22 07:38:33;;;;;;;1999.90;999.90;;;19.30;69.00;;;;;;5038940;28;20044;-77
2023/05/22 07:40:58;;;;;;;1999.90;999.90;;;19.20;69.00;;;;;;5005874;28;20069;-77
2023/05/22 07:43:24;;;;;;;1999.90;999.90;;;19.60;67.80;;;;;;5034998;28;20365;-77
2023/05/22 07:45:50;;;;;;;1999.90;999.90;;;19.50;66.10;;;;;;5034826;28;20076;-78
2023/05/22 07:48:16;;;;;;;1999.90;999.90;;;20.00;66.20;;;;;;5036261;28;20402;-77
2023/05/22 07:50:44;;;;;;;1999.90;999.90;;;21.00;66.20;;;;;;5034961;28;20127;-77
2023/05/22 07:53:10;;;;;;;1999.90;999.90;;;20.90;64.50;;;;;;5039259;28;20057;-77
2023/05/22 07:55:36;;;;;;;1999.90;999.90;;;20.30;63.40;;;;;;5030517;28;20064;-77
2023/05/22 07:58:03;;;;;;;1999.90;999.90;;;20.50;66.60;;;;;;5036013;28;20060;-78
2023/05/22 08:00:28;;;;;;;1999.90;999.90;;;21.10;63.30;;;;;;5035856;28;20055;-78
2023/05/22 08:02:54;;;;;;;1999.90;999.90;;;20.90;63.70;;;;;;5040142;28;20026;-80
2023/05/22 08:05:20;;;;;;;1999.90;999.90;;;20.70;64.90;;;;;;5039516;28;20059;-80
2023/05/22 08:07:46;;;;;;;1999.90;999.90;;;20.70;65.90;;;;;;5040604;28;20384;-79
2023/05/22 08:10:16;;;;;;;1999.90;999.90;;;20.70;63.50;;;;;;5037579;28;20127;-80
2023/05/22 08:12:42;;;;;;;1999.90;999.90;;;20.90;63.80;;;;;;5032662;28;20115;-81
2023/05/22 08:15:08;;;;;;;1999.90;999.90;;;21.50;65.60;;;;;;5037957;28;20500;-79
2023/05/22 08:17:34;;;;;;;1999.90;999.90;;;21.10;62.70;;;;;;5014950;28;20040;-81
2023/05/22 08:20:00;;;;;;;1999.90;999.90;;;21.30;66.70;;;;;;5031600;28;20673;-80
2023/05/22 08:22:28;;;;;;;1999.90;999.90;;;21.30;62.40;;;;;;5030899;28;20113;-81
2023/05/22 08:24:53;;;;;;;1999.90;999.90;;;21.00;60.30;;;;;;5038127;28;20686;-81
2023/05/22 08:27:19;;;;;;;1999.90;999.90;;;21.40;62.30;;;;;;5041047;28;20033;-83
2023/05/22 08:29:44;;;;;;;1999.90;999.90;;;21.00;61.60;;;;;;5032937;28;20526;-79
2023/05/22 08:32:10;;;;;;;1999.90;999.90;;;21.10;63.90;;;;;;5042094;28;20399;-79
2023/05/22 08:34:36;;;;;;;1999.90;999.90;;;20.70;62.70;;;;;;5035674;28;20335;-79
2023/05/22 08:37:03;;;;;;;1999.90;999.90;;;21.00;63.40;;;;;;5035932;28;20033;-80
2023/05/22 08:39:30;;;;;;;1999.90;999.90;;;21.30;59.20;;;;;;5034421;28;20045;-80
2023/05/22 08:41:56;;;;;;;1999.90;999.90;;;21.30;61.10;;;;;;5040340;28;20036;-81
2023/05/22 08:44:23;;;;;;;1999.90;999.90;;;21.10;60.80;;;;;;5034412;28;20033;-78
2023/05/22 08:46:51;;;;;;;1999.90;999.90;;;21.30;61.60;;;;;;5035451;28;20041;-78
2023/05/22 08:49:21;;;;;;;1999.90;999.90;;;21.50;59.20;;;;;;5034571;28;20090;-78
2023/05/22 08:51:58;;;;;;;1999.90;999.90;;;22.10;60.30;;;;;;5033459;28;20069;-81
2023/05/22 08:54:26;;;;;;;1999.90;999.90;;;22.00;57.70;;;;;;5032918;28;20029;-79
2023/05/22 08:56:52;;;;;;;1999.90;999.90;;;22.30;60.00;;;;;;5036866;28;20120;-79
2023/05/22 08:59:19;;;;;;;1999.90;999.90;;;22.60;60.40;;;;;;5029319;28;20030;-79
2023/05/22 09:01:46;;;;;;;1999.90;999.90;;;22.70;58.90;;;;;;5041071;28;20098;-79
2023/05/22 09:04:13;;;;;;;1999.90;999.90;;;22.80;59.80;;;;;;5040459;28;20029;-80
2023/05/22 09:06:38;;;;;;;1999.90;999.90;;;22.90;59.00;;;;;;5034459;28;20032;-79
2023/05/22 09:09:04;;;;;;;1999.90;999.90;;;23.20;59.40;;;;;;5042366;28;20082;-81
2023/05/22 09:11:30;;;;;;;1999.90;999.90;;;23.30;60.70;;;;;;5033312;28;20087;-77
2023/05/22 09:14:10;;;;;;;1999.90;999.90;;;23.60;58.40;;;;;;5036196;28;20037;-75
2023/05/22 09:16:47;;;;;;;1999.90;999.90;;;24.00;55.30;;;;;;5037429;28;20049;-81
2023/05/22 09:19:13;;;;;;;1999.90;999.90;;;23.80;56.70;;;;;;5031194;28;20029;-78
2023/05/22 09:21:39;;;;;;;1999.90;999.90;;;23.60;52.40;;;;;;5035723;28;20025;-78
2023/05/22 09:24:09;;;;;;;1999.90;999.90;;;23.60;54.90;;;;;;5040229;28;20052;-77
2023/05/22 09:26:35;;;;;;;1999.90;999.90;;;23.80;54.20;;;;;;5032424;28;20064;-77
2023/05/22 09:29:01;;;;;;;1999.90;999.90;;;24.00;57.20;;;;;;5034047;28;20056;-78
2023/05/22 09:31:28;;;;;;;1999.90;999.90;;;24.50;55.50;;;;;;5036132;28;20056;-79
2023/05/22 09:33:54;;;;;;;1999.90;999.90;;;24.30;52.80;;;;;;5028733;28;20033;-78
2023/05/22 09:36:21;;;;;;;1999.90;999.90;;;24.20;51.60;;;;;;5033350;28;20100;-78
2023/05/22 09:38:48;;;;;;;1999.90;999.90;;;24.60;50.10;;;;;;5030055;28;20079;-79
2023/05/22 09:41:21;;;;;;;1999.90;999.90;;;24.50;51.70;;;;;;5033966;28;20033;-78
2023/05/22 09:43:50;;;;;;;1999.90;999.90;;;24.50;52.90;;;;;;5047963;28;20060;-77
2023/05/22 09:46:16;;;;;;;1999.90;999.90;;;24.50;51.20;;;;;;5004772;28;20061;-75
2023/05/22 09:48:41;;;;;;;1999.90;999.90;;;24.90;51.10;;;;;;5034855;28;20056;-74
2023/05/22 09:51:09;;;;;;;1999.90;999.90;;;25.00;50.50;;;;;;5036750;28;20029;-74
2023/05/22 09:53:35;;;;;;;1999.90;999.90;;;24.60;53.10;;;;;;5040809;28;20083;-74
2023/05/22 09:56:07;;;;;;;1999.90;999.90;;;25.00;50.70;;;;;;5042488;28;20041;-74
2023/05/22 09:58:37;;;;;;;1999.90;999.90;;;25.50;52.80;;;;;;5037025;28;20468;-74
2023/05/22 10:01:03;;;;;;;1999.90;999.90;;;25.70;48.00;;;;;;5022213;28;20502;-78
2023/05/22 10:03:32;;;;;;;1999.90;999.90;;;26.10;49.30;;;;;;5036953;28;20087;-76
2023/05/22 10:06:00;;;;;;;1999.90;999.90;;;25.60;48.00;;;;;;5038899;28;20082;-77
2023/05/22 10:08:35;;;;;;;1999.90;999.90;;;26.10;45.90;;;;;;5034903;28;20469;-77
2023/05/22 10:11:02;;;;;;;1999.90;999.90;;;26.00;46.40;;;;;;5036368;28;20041;-77
2023/05/22 10:13:28;;;;;;;1999.90;999.90;;;26.20;46.00;;;;;;5040087;28;20098;-77
2023/05/22 10:15:55;;;;;;;1999.90;999.90;;;26.30;44.00;;;;;;5041388;28;20044;-77
2023/05/22 10:18:23;;;;;;;1999.90;999.90;;;26.20;44.00;;;;;;5036524;28;20034;-77
2023/05/22 10:20:50;;;;;;;1999.90;999.90;;;26.10;45.40;;;;;;5038213;28;20522;-76
2023/05/22 10:23:16;;;;;;;1999.90;999.90;;;26.30;45.80;;;;;;5035653;28;20037;-77
2023/05/22 10:25:43;;;;;;;1999.90;999.90;;;26.40;46.40;;;;;;5035648;28;20029;-77
2023/05/22 10:28:09;;;;;;;1999.90;999.90;;;26.50;45.40;;;;;;5037853;28;20033;-77
2023/05/22 10:30:57;;;;;;;1999.90;999.90;;;26.80;49.90;;;;;;5039591;28;20021;-77
2023/05/22 10:33:35;;;;;;;1999.90;999.90;;;26.90;46.20;;;;;;5036021;28;20064;-77
2023/05/22 10:36:06;;;;;;;1999.90;999.90;;;26.60;42.30;;;;;;5041340;28;20105;-76
2023/05/22 10:38:56;;;;;;;1999.90;999.90;;;27.00;43.50;;;;;;5037152;28;20073;-76
2023/05/22 10:41:24;;;;;;;1999.90;999.90;;;26.70;43.90;;;;;;5033717;28;20041;-76
2023/05/22 10:43:51;;;;;;;1999.90;999.90;;;26.80;40.70;;;;;;5040287;28;20033;-77
2023/05/22 10:46:17;;;;;;;1999.90;999.90;;;27.30;43.20;;;;;;5034866;28;20064;-76
2023/05/22 10:48:47;;;;;;;1999.90;999.90;;;27.60;44.30;;;;;;5036041;28;20037;-73
2023/05/22 10:51:18;;;;;;;1999.90;999.90;;;28.20;43.70;;;;;;5040052;28;20036;-74
2023/05/22 10:53:44;;;;;;;1999.90;999.90;;;27.90;43.50;;;;;;5037694;28;20029;-74
2023/05/22 10:56:15;;;;;;;1999.90;999.90;;;27.90;43.10;;;;;;5032536;28;20132;-75
2023/05/22 10:58:43;;;;;;;1999.90;999.90;;;27.80;41.90;;;;;;5037489;28;20112;-75
2023/05/22 11:01:13;;;;;;;1999.90;999.90;;;28.30;41.20;;;;;;5040336;28;20024;-81
2023/05/22 11:04:07;;;;;;;1999.90;999.90;;;28.50;39.00;;;;;;5038434;28;20032;-81
2023/05/22 11:06:46;;;;;;;1999.90;999.90;;;28.80;38.90;;;;;;5035263;28;20036;-82
2023/05/22 11:09:18;;;;;;;1999.90;999.90;;;29.30;37.90;;;;;;5035201;28;20391;-78
2023/05/22 11:11:45;;;;;;;1999.90;999.90;;;29.70;37.30;;;;;;5039747;28;20115;-78
2023/05/22 11:14:15;;;;;;;1999.90;999.90;;;30.40;37.20;;;;;;5035687;28;20021;-77
2023/05/22 11:16:40;;;;;;;1999.90;999.90;;;30.40;36.70;;;;;;5039641;28;20033;-77
2023/05/22 11:19:10;;;;;;;1999.90;999.90;;;30.70;37.40;;;;;;5037665;28;20468;-78
2023/05/22 11:21:43;;;;;;;1999.90;999.90;;;31.00;36.70;;;;;;5036907;28;20029;-78
2023/05/22 11:24:16;;;;;;;1999.90;999.90;;;31.10;32.90;;;;;;5035793;28;20040;-78
2023/05/22 11:26:42;;;;;;;1999.90;999.90;;;30.70;32.90;;;;;;5033433;28;20040;-78
2023/05/22 11:29:08;;;;;;;1999.90;999.90;;;31.40;35.30;;;;;;5036654;28;20037;-76
2023/05/22 11:31:36;;;;;;;1999.90;999.90;;;30.60;34.00;;;;;;5034748;28;20044;-77
2023/05/22 11:34:02;;;;;;;1999.90;999.90;;;31.00;30.80;;;;;;5033417;28;20056;-75
2023/05/22 11:36:28;;;;;;;1999.90;999.90;;;31.20;33.10;;;;;;5032548;28;20021;-76
2023/05/22 11:38:58;;;;;;;1999.90;999.90;;;31.80;29.70;;;;;;5040371;28;20049;-76
2023/05/22 11:41:28;;;;;;;1999.90;999.90;;;31.40;29.10;;;;;;5035232;28;20834;-76
2023/05/22 11:43:54;;;;;;;1999.90;999.90;;;32.20;29.10;;;;;;5034251;28;20025;-77
2023/05/22 11:46:20;;;;;;;1999.90;999.90;;;32.90;32.60;;;;;;5035677;28;20388;-76
2023/05/22 11:48:47;;;;;;;1999.90;999.90;;;33.10;28.40;;;;;;5036452;28;20025;-76
2023/05/22 11:51:13;;;;;;;1999.90;999.90;;;32.70;27.80;;;;;;5038252;28;20111;-76
2023/05/22 11:53:40;;;;;;;1999.90;999.90;;;32.60;26.70;;;;;;5036986;28;20116;-76
2023/05/22 11:56:06;;;;;;;1999.90;999.90;;;32.60;27.80;;;;;;5036519;28;20857;-76
2023/05/22 11:58:32;;;;;;;1999.90;999.90;;;33.50;29.20;;;;;;5037067;28;20057;-76
2023/05/22 12:01:02;;;;;;;1999.90;999.90;;;33.40;27.60;;;;;;5029276;28;20064;-75
2023/05/22 12:03:29;;;;;;;1999.90;999.90;;;33.20;27.10;;;;;;5039836;28;20033;-75
2023/05/22 12:05:56;;;;;;;1999.90;999.90;;;33.10;26.80;;;;;;5036933;28;20510;-76